Terminal Aerodrome Forecast
Issued by NWS

Home | Current Version | Previous Version | Text Only | Print | Product List | Glossary On
Versions: 1 2 3 4 5 6 7 8 9 10 11 12 13
746
FTUS41 KAKQ 192337
TAFPHF
TAF
KPHF 192337Z 2000/2024 VRB03KT P6SM SKC
     FM200500 35003KT P6SM SKC
     FM201500 02007KT P6SM SKC=

USA.gov is the U.S. government's official web portal to all federal, state and local government web resources and services.